createdAt,value
2023-03-17T00:00:23.956Z,306.50
2023-03-17T00:01:23.940Z,310.53
2023-03-17T00:02:23.952Z,316.78
2023-03-17T00:03:23.927Z,320.15
2023-03-17T00:04:23.902Z,327.45
2023-03-17T00:05:23.934Z,336.10
2023-03-17T00:06:23.873Z,347.04
2023-03-17T00:07:23.866Z,351.47
2023-03-17T00:08:23.847Z,356.01
2023-03-17T00:09:23.863Z,359.89
2023-03-17T00:10:23.825Z,355.63
2023-03-17T00:11:23.846Z,354.86
2023-03-17T00:12:23.820Z,348.50
2023-03-17T00:13:23.787Z,340.95
2023-03-17T00:14:23.789Z,332.05
2023-03-17T00:15:23.769Z,324.23
2023-03-17T00:16:23.806Z,320.46
2023-03-17T00:17:23.809Z,326.80
2023-03-17T00:18:23.715Z,334.40
2023-03-17T00:19:23.726Z,332.39
2023-03-17T00:20:23.723Z,321.40
2023-03-17T00:21:23.692Z,309.66
2023-03-17T00:22:23.684Z,296.86
2023-03-17T00:23:23.684Z,290.35
2023-03-17T00:24:23.689Z,278.60
2023-03-17T00:25:23.640Z,273.53
2023-03-17T00:26:23.681Z,271.28
2023-03-17T00:27:23.613Z,266.69
2023-03-17T00:28:23.600Z,267.55
2023-03-17T00:29:23.639Z,269.30
2023-03-17T00:30:23.600Z,270.84
2023-03-17T00:31:23.638Z,267.12
2023-03-17T00:32:23.545Z,265.83
2023-03-17T00:33:23.532Z,260.80
2023-03-17T00:34:23.549Z,259.36
2023-03-17T00:35:23.548Z,258.35
2023-03-17T00:36:23.504Z,258.15
2023-03-17T00:37:23.482Z,258.15
2023-03-17T00:38:23.478Z,257.55
2023-03-17T00:39:23.461Z,261.42
2023-03-17T00:40:23.460Z,266.47
2023-03-17T00:41:23.480Z,273.08
2023-03-17T00:42:23.418Z,278.13
2023-03-17T00:43:23.458Z,275.35
2023-03-17T00:44:23.402Z,272.85
2023-03-17T00:45:23.402Z,267.12
2023-03-17T00:46:23.412Z,260.80
2023-03-17T00:47:23.410Z,257.14
2023-03-17T00:48:23.352Z,255.36
2023-03-17T00:49:23.346Z,253.40
2023-03-17T00:50:23.353Z,251.47
2023-03-17T00:51:23.383Z,246.60
2023-03-17T00:52:23.290Z,241.55
2023-03-17T00:53:23.330Z,233.70
2023-03-17T00:54:23.282Z,227.27
2023-03-17T00:55:23.258Z,219.86
2023-03-17T00:56:23.240Z,214.02
2023-03-17T00:57:23.243Z,210.21
2023-03-17T00:58:23.220Z,205.51
2023-03-17T00:59:23.237Z,199.07
2023-03-17T01:00:23.197Z,196.24
2023-03-17T01:01:23.221Z,193.60
2023-03-17T01:02:23.236Z,191.24
2023-03-17T01:03:23.163Z,187.77
2023-03-17T01:04:23.149Z,186.60
2023-03-17T01:05:23.182Z,185.36
2023-03-17T01:06:23.115Z,186.08
2023-03-17T01:07:23.107Z,188.73
2023-03-17T01:08:23.114Z,186.92
2023-03-17T01:09:23.123Z,183.54
2023-03-17T01:10:23.076Z,176.79
2023-03-17T01:11:23.095Z,166.62
2023-03-17T01:12:23.055Z,158.91
2023-03-17T01:13:23.051Z,152.70
2023-03-17T01:14:23.042Z,145.94
2023-03-17T01:15:23.055Z,140.93
2023-03-17T01:16:23.057Z,139.06
2023-03-17T01:17:23.014Z,137.92
2023-03-17T01:18:23.133Z,137.92
2023-03-17T01:19:23.028Z,140.10
2023-03-17T01:20:22.981Z,141.76
2023-03-17T01:21:22.934Z,142.72
2023-03-17T01:22:22.924Z,146.32
2023-03-17T01:23:22.946Z,147.74
2023-03-17T01:24:22.890Z,149.31
2023-03-17T01:25:22.881Z,149.31
2023-03-17T01:26:25.727Z,150.11
2023-03-17T01:27:22.858Z,152.29
2023-03-17T01:28:22.851Z,155.96
2023-03-17T01:29:22.851Z,157.86
2023-03-17T01:30:22.826Z,162.44
2023-03-17T01:31:22.903Z,163.86
2023-03-17T01:32:22.829Z,164.83
2023-03-17T01:33:22.779Z,164.67
2023-03-17T01:34:22.768Z,165.48
2023-03-17T01:35:22.777Z,164.67
2023-03-17T01:36:22.741Z,163.23
2023-03-17T01:37:22.786Z,160.88
2023-03-17T01:38:22.736Z,158.76
2023-03-17T01:39:22.710Z,155.38
2023-03-17T01:40:22.709Z,152.01
2023-03-17T01:41:22.700Z,150.11
2023-03-17T01:42:22.669Z,149.71
2023-03-17T01:43:22.689Z,149.18
2023-03-17T01:44:22.646Z,149.44
2023-03-17T01:45:22.658Z,151.87
2023-03-17T01:46:22.658Z,154.95
2023-03-17T01:47:22.628Z,162.60
2023-03-17T01:48:22.586Z,167.62
2023-03-17T01:49:22.578Z,171.03
2023-03-17T01:50:22.652Z,174.04
2023-03-17T01:51:22.551Z,173.32
2023-03-17T01:52:22.537Z,169.65
2023-03-17T01:53:22.580Z,164.51
2023-03-17T01:54:22.552Z,161.19
2023-03-17T01:55:22.518Z,158.01
2023-03-17T01:56:22.487Z,155.24
2023-03-17T01:57:22.485Z,152.43
2023-03-17T01:58:22.464Z,151.87
2023-03-17T01:59:22.535Z,153.40
2023-03-17T02:00:22.458Z,156.54
2023-03-17T02:01:22.477Z,159.36
2023-03-17T02:02:22.432Z,159.21
2023-03-17T02:03:22.434Z,158.46
2023-03-17T02:04:22.462Z,162.28
2023-03-17T02:05:22.415Z,168.97
2023-03-17T02:06:22.388Z,177.35
2023-03-17T02:07:22.352Z,180.78
2023-03-17T02:08:22.341Z,185.16
2023-03-17T02:09:22.335Z,190.03
2023-03-17T02:10:22.319Z,194.51
2023-03-17T02:11:22.351Z,199.92
2023-03-17T02:12:22.293Z,205.77
2023-03-17T02:13:22.324Z,209.68
2023-03-17T02:14:22.286Z,212.65
2023-03-17T02:15:22.262Z,213.47
2023-03-17T02:16:22.290Z,214.44
2023-03-17T02:17:22.271Z,213.75
2023-03-17T02:18:22.224Z,215.42
2023-03-17T02:19:22.209Z,212.10
2023-03-17T02:20:22.188Z,210.35
2023-03-17T02:21:22.196Z,207.31
2023-03-17T02:22:22.184Z,201.62
2023-03-17T02:23:22.181Z,198.48
2023-03-17T02:24:22.134Z,192.80
2023-03-17T02:25:22.133Z,186.39
2023-03-17T02:26:22.137Z,186.29
2023-03-17T02:27:22.116Z,185.16
2023-03-17T02:28:22.090Z,185.57
2023-03-17T02:29:22.111Z,182.74
2023-03-17T02:30:22.095Z,179.05
2023-03-17T02:31:22.095Z,175.86
2023-03-17T02:32:22.056Z,172.79
2023-03-17T02:33:22.047Z,170.34
2023-03-17T02:34:22.042Z,167.96
2023-03-17T02:35:22.062Z,163.86
2023-03-17T02:36:22.183Z,159.21
2023-03-17T02:37:21.988Z,157.71
2023-03-17T02:38:21.979Z,158.16
2023-03-17T02:39:21.986Z,161.66
2023-03-17T02:40:21.951Z,161.97
2023-03-17T02:41:21.954Z,162.44
2023-03-17T02:42:21.929Z,162.60
2023-03-17T02:43:21.926Z,162.13
2023-03-17T02:44:21.921Z,158.61
2023-03-17T02:45:21.886Z,154.95
2023-03-17T02:46:21.960Z,152.29
2023-03-17T02:47:21.945Z,149.84
2023-03-17T02:48:21.847Z,146.58
2023-03-17T02:49:22.510Z,143.33
2023-03-17T02:50:21.831Z,139.41
2023-03-17T02:51:21.819Z,134.07
2023-03-17T02:52:21.792Z,127.95
2023-03-17T02:53:21.838Z,124.81
2023-03-17T02:54:21.785Z,123.80
2023-03-17T02:55:21.765Z,122.01
2023-03-17T02:56:21.745Z,122.90
2023-03-17T02:57:21.739Z,124.54
2023-03-17T02:58:21.716Z,123.53
2023-03-17T02:59:21.742Z,122.36
2023-03-17T03:00:21.772Z,125.65
2023-03-17T03:01:21.741Z,127.37
2023-03-17T03:02:21.768Z,129.03
2023-03-17T03:03:21.662Z,133.33
2023-03-17T03:04:21.648Z,133.96
2023-03-17T03:05:21.670Z,135.69
2023-03-17T03:06:21.617Z,135.80
2023-03-17T03:07:21.616Z,136.57
2023-03-17T03:08:21.597Z,137.47
2023-03-17T03:09:21.604Z,139.29
2023-03-17T03:10:21.594Z,140.81
2023-03-17T03:11:21.613Z,143.09
2023-03-17T03:12:21.561Z,143.21
2023-03-17T03:13:21.536Z,143.82
2023-03-17T03:14:21.579Z,144.81
2023-03-17T03:15:21.524Z,143.70
2023-03-17T03:16:21.523Z,142.36
2023-03-17T03:17:21.542Z,140.34
2023-03-17T03:18:21.475Z,141.52
2023-03-17T03:19:21.464Z,143.09
2023-03-17T03:20:21.459Z,142.00
2023-03-17T03:21:21.437Z,141.52
2023-03-17T03:22:21.422Z,140.81
2023-03-17T03:23:21.437Z,135.58
2023-03-17T03:24:21.410Z,131.97
2023-03-17T03:25:21.384Z,132.38
2023-03-17T03:26:21.375Z,130.23
2023-03-17T03:27:21.385Z,130.03
2023-03-17T03:28:21.357Z,127.66
2023-03-17T03:29:21.365Z,122.01
2023-03-17T03:30:21.313Z,117.49
2023-03-17T03:31:21.362Z,113.21
2023-03-17T03:32:21.314Z,109.60
2023-03-17T03:33:21.300Z,107.08
2023-03-17T03:34:21.274Z,104.29
2023-03-17T03:35:21.296Z,101.10
2023-03-17T03:36:21.244Z,98.84
2023-03-17T03:37:21.247Z,96.02
2023-03-17T03:38:21.222Z,93.69
2023-03-17T03:39:21.220Z,93.51
2023-03-17T03:40:21.210Z,95.39
2023-03-17T03:41:21.225Z,94.75
2023-03-17T03:42:21.173Z,93.58
2023-03-17T03:43:23.650Z,92.15
2023-03-17T03:44:21.155Z,90.95
2023-03-17T03:45:21.143Z,89.31
2023-03-17T03:46:21.162Z,87.27
2023-03-17T03:47:21.146Z,85.24
2023-03-17T03:48:21.112Z,83.05
2023-03-17T03:49:21.074Z,82.15
2023-03-17T03:50:21.070Z,81.28
2023-03-17T03:51:21.065Z,80.97
2023-03-17T03:52:21.050Z,81.20
2023-03-17T03:53:21.127Z,81.36
2023-03-17T03:54:21.050Z,81.36
2023-03-17T03:55:21.005Z,81.04
2023-03-17T03:56:20.999Z,80.35
2023-03-17T03:57:20.969Z,80.89
2023-03-17T03:58:20.998Z,79.89
2023-03-17T03:59:20.991Z,79.14
2023-03-17T04:00:20.936Z,78.62
2023-03-17T04:01:20.933Z,77.53
2023-03-17T04:02:21.002Z,76.75
2023-03-17T04:03:20.926Z,76.13
2023-03-17T04:04:20.915Z,76.13
2023-03-17T04:05:20.892Z,76.06
2023-03-17T04:06:20.862Z,76.75
2023-03-17T04:07:20.846Z,77.18
2023-03-17T04:08:20.851Z,77.53
2023-03-17T04:09:20.825Z,78.40
2023-03-17T04:10:20.817Z,78.91
2023-03-17T04:11:20.823Z,78.62
2023-03-17T04:12:20.788Z,79.44
2023-03-17T04:13:20.770Z,80.12
2023-03-17T04:14:20.765Z,80.58
2023-03-17T04:15:20.769Z,81.20
2023-03-17T04:16:20.781Z,81.28
2023-03-17T04:17:20.753Z,82.31
2023-03-17T04:18:20.712Z,81.99
2023-03-17T04:19:20.795Z,81.04
2023-03-17T04:20:20.703Z,80.89
2023-03-17T04:21:20.684Z,80.89
2023-03-17T04:22:20.657Z,81.28
2023-03-17T04:23:20.681Z,80.35
2023-03-17T04:24:20.645Z,80.19
2023-03-17T04:25:20.621Z,79.81
2023-03-17T04:26:20.609Z,78.91
2023-03-17T04:27:20.619Z,78.32
2023-03-17T04:28:20.587Z,76.20
2023-03-17T04:29:20.600Z,73.92
2023-03-17T04:30:20.590Z,72.39
2023-03-17T04:31:20.568Z,71.04
2023-03-17T04:32:20.544Z,69.92
2023-03-17T04:33:20.522Z,68.72
2023-03-17T04:34:20.505Z,68.00
2023-03-17T04:35:20.539Z,67.51
2023-03-17T04:36:20.480Z,67.45
2023-03-17T04:37:20.622Z,67.24
2023-03-17T04:38:20.469Z,67.61
2023-03-17T04:39:20.445Z,66.97
2023-03-17T04:40:20.434Z,66.86
2023-03-17T04:41:20.452Z,66.18
2023-03-17T04:42:20.418Z,65.82
2023-03-17T04:43:20.403Z,64.85
2023-03-17T04:44:20.386Z,63.77
2023-03-17T04:45:20.371Z,62.21
2023-03-17T04:46:20.360Z,60.55
2023-03-17T04:47:20.383Z,58.98
2023-03-17T04:48:20.344Z,57.45
2023-03-17T04:49:20.325Z,56.87
2023-03-17T04:50:20.305Z,56.45
2023-03-17T04:51:20.293Z,56.14
2023-03-17T04:52:20.291Z,55.66
2023-03-17T04:53:20.289Z,55.22
2023-03-17T04:54:20.261Z,54.51
2023-03-17T04:55:20.243Z,53.43
2023-03-17T04:56:20.257Z,52.69
2023-03-17T04:57:20.237Z,52.37
2023-03-17T04:58:30.357Z,52.43
2023-03-17T04:59:20.215Z,52.20
2023-03-17T05:00:20.175Z,52.17
2023-03-17T05:01:20.170Z,52.24
2023-03-17T05:02:20.245Z,51.66
2023-03-17T05:03:26.669Z,50.69
2023-03-17T05:04:31.219Z,50.12
2023-03-17T05:05:20.149Z,50.12
2023-03-17T05:06:20.109Z,50.18
2023-03-17T05:07:20.093Z,49.50
2023-03-17T05:08:20.103Z,49.07
2023-03-17T05:09:20.075Z,48.75
2023-03-17T05:10:20.058Z,48.56
2023-03-17T05:11:20.073Z,48.17
2023-03-17T05:12:20.023Z,47.84
2023-03-17T05:13:20.036Z,47.67
2023-03-17T05:14:20.032Z,47.41
2023-03-17T05:15:19.980Z,47.41
2023-03-17T05:16:19.994Z,47.33
2023-03-17T05:17:19.989Z,47.70
2023-03-17T05:18:19.985Z,47.67
2023-03-17T05:19:20.016Z,47.67
2023-03-17T05:20:19.941Z,47.87
2023-03-17T05:21:19.905Z,47.87
2023-03-17T05:22:19.918Z,47.78
2023-03-17T05:23:19.922Z,48.06
2023-03-17T05:24:19.866Z,47.70
2023-03-17T05:25:19.882Z,47.73
2023-03-17T05:26:19.843Z,47.70
2023-03-17T05:27:19.834Z,47.62
2023-03-17T05:28:19.829Z,47.76
2023-03-17T05:29:19.856Z,47.35
2023-03-17T05:30:19.820Z,46.85
2023-03-17T05:31:19.818Z,47.06
2023-03-17T05:32:19.788Z,46.64
2023-03-17T05:33:19.780Z,46.54
2023-03-17T05:34:19.749Z,46.49
2023-03-17T05:35:19.776Z,46.44
2023-03-17T05:36:19.717Z,46.44
2023-03-17T05:37:19.727Z,46.34
2023-03-17T05:38:19.700Z,46.03
2023-03-17T05:39:19.699Z,45.83
2023-03-17T05:40:20.449Z,45.83
2023-03-17T05:41:19.710Z,45.93
2023-03-17T05:42:19.650Z,45.83
2023-03-17T05:43:19.653Z,46.18
2023-03-17T05:44:19.631Z,45.63
2023-03-17T05:45:19.658Z,45.05
2023-03-17T05:46:20.562Z,44.76
2023-03-17T05:47:19.625Z,45.44
2023-03-17T05:48:19.580Z,46.08
2023-03-17T05:49:19.578Z,46.44
2023-03-17T05:50:19.608Z,47.22
2023-03-17T05:51:19.541Z,47.97
2023-03-17T05:52:19.529Z,47.17
2023-03-17T05:53:19.535Z,46.90
2023-03-17T05:54:19.499Z,46.64
2023-03-17T05:55:19.499Z,46.75
2023-03-17T05:56:19.472Z,46.59
2023-03-17T05:57:19.489Z,46.49
2023-03-17T05:58:19.446Z,46.85
2023-03-17T05:59:19.511Z,46.64
2023-03-17T06:00:19.456Z,46.23
2023-03-17T06:01:19.447Z,46.18
2023-03-17T06:02:19.452Z,45.93
2023-03-17T06:03:19.534Z,45.48
2023-03-17T06:04:19.380Z,44.85
2023-03-17T06:05:19.416Z,44.38
2023-03-17T06:06:19.359Z,44.01
2023-03-17T06:07:19.348Z,43.33
2023-03-17T06:08:19.331Z,42.84
2023-03-17T06:09:19.323Z,42.12
2023-03-17T06:10:19.332Z,41.29
2023-03-17T06:11:19.338Z,40.46
2023-03-17T06:12:19.279Z,40.42
2023-03-17T06:13:19.264Z,40.15
2023-03-17T06:14:19.257Z,39.99
2023-03-17T06:15:19.287Z,40.49
2023-03-17T06:16:19.300Z,41.09
2023-03-17T06:17:19.258Z,40.46
2023-03-17T06:18:19.209Z,40.38
2023-03-17T06:19:19.196Z,40.15
2023-03-17T06:20:19.255Z,40.03
2023-03-17T06:21:19.199Z,40.15
2023-03-17T06:22:19.200Z,40.11
2023-03-17T06:23:19.192Z,40.30
2023-03-17T06:24:19.132Z,40.46
2023-03-17T06:25:19.300Z,40.38
2023-03-17T06:26:19.118Z,40.34
2023-03-17T06:27:19.107Z,40.73
2023-03-17T06:28:19.080Z,41.57
2023-03-17T06:29:19.117Z,41.70
2023-03-17T06:30:19.103Z,41.66
2023-03-17T06:31:19.090Z,41.29
2023-03-17T06:32:20.962Z,42.03
2023-03-17T06:33:19.028Z,42.54
2023-03-17T06:34:19.044Z,42.76
2023-03-17T06:35:19.081Z,43.20
2023-03-17T06:36:18.989Z,43.55
2023-03-17T06:37:18.984Z,43.83
2023-03-17T06:38:18.951Z,43.60
2023-03-17T06:39:18.940Z,43.33
2023-03-17T06:40:18.953Z,42.37
2023-03-17T06:41:18.939Z,40.49
2023-03-17T06:42:18.906Z,40.30
2023-03-17T06:43:18.892Z,37.83
2023-03-17T06:44:18.887Z,37.43
2023-03-17T06:45:18.859Z,37.00
2023-03-17T06:46:18.890Z,37.70
2023-03-17T06:47:18.863Z,39.43
2023-03-17T06:48:18.832Z,39.54
2023-03-17T06:49:18.829Z,41.82
2023-03-17T06:50:18.823Z,40.61
2023-03-17T06:51:18.792Z,37.27
2023-03-17T06:52:18.784Z,36.02
2023-03-17T06:53:18.801Z,35.56
2023-03-17T06:54:18.746Z,34.71
2023-03-17T06:55:18.737Z,35.33
2023-03-17T06:56:29.527Z,35.15
2023-03-17T06:57:18.721Z,35.75
2023-03-17T06:58:18.713Z,37.17
2023-03-17T06:59:18.738Z,47.35
2023-03-17T07:00:18.677Z,56.90
2023-03-17T07:01:18.718Z,64.11
2023-03-17T07:02:18.662Z,68.33
2023-03-17T07:03:18.652Z,74.18
2023-03-17T07:04:18.662Z,76.33
2023-03-17T07:05:18.657Z,71.65
2023-03-17T07:06:18.629Z,69.29
2023-03-17T07:07:18.585Z,68.83
2023-03-17T07:08:18.572Z,70.15
2023-03-17T07:09:18.556Z,71.29
2023-03-17T07:10:18.569Z,74.05
2023-03-17T07:11:18.576Z,76.13
2023-03-17T07:12:18.533Z,76.54
2023-03-17T07:13:18.512Z,78.62
2023-03-17T07:14:18.490Z,81.04
2023-03-17T07:15:18.482Z,85.93
2023-03-17T07:16:18.522Z,92.25
2023-03-17T07:17:18.485Z,93.48
2023-03-17T07:18:18.447Z,118.23
2023-03-17T07:19:18.426Z,151.46
2023-03-17T07:20:18.461Z,191.24
2023-03-17T07:21:18.404Z,216.12
2023-03-17T07:22:18.411Z,227.11
2023-03-17T07:23:18.422Z,234.36
2023-03-17T07:24:18.375Z,265.19
2023-03-17T07:25:18.362Z,296.33
2023-03-17T07:26:18.359Z,306.50
2023-03-17T07:27:19.415Z,301.47
2023-03-17T07:28:18.320Z,327.77
2023-03-17T07:29:18.335Z,372.46
2023-03-17T07:30:18.319Z,390.14
2023-03-17T07:31:18.314Z,391.96
2023-03-17T07:32:18.312Z,386.33
2023-03-17T07:33:18.275Z,376.70
2023-03-17T07:34:18.261Z,398.00
2023-03-17T07:35:18.321Z,471.79
2023-03-17T07:36:18.214Z,502.86
2023-03-17T07:37:18.227Z,519.59
2023-03-17T07:38:18.188Z,514.42
2023-03-17T07:39:18.172Z,506.27
2023-03-17T07:40:18.189Z,515.60
2023-03-17T07:41:18.186Z,527.34
2023-03-17T07:42:18.174Z,515.21
2023-03-17T07:43:18.123Z,495.08
2023-03-17T07:44:18.108Z,471.46
2023-03-17T07:45:18.090Z,432.88
2023-03-17T07:46:18.138Z,453.33
2023-03-17T07:47:18.117Z,457.65
2023-03-17T07:48:18.073Z,469.15
2023-03-17T07:49:20.931Z,495.45
2023-03-17T07:50:18.031Z,526.92
2023-03-17T07:51:18.014Z,525.69
2023-03-17T07:52:18.062Z,519.19
2023-03-17T07:53:18.066Z,530.67
2023-03-17T07:54:18.018Z,540.92
2023-03-17T07:55:17.974Z,551.58
2023-03-17T07:56:17.964Z,564.56
2023-03-17T07:57:18.057Z,570.80
2023-03-17T07:58:17.975Z,585.22
2023-03-17T07:59:17.946Z,589.84
2023-03-17T08:00:17.913Z,594.54
2023-03-17T08:01:17.902Z,585.73
2023-03-17T08:02:18.257Z,582.68
2023-03-17T08:03:18.035Z,592.96
2023-03-17T08:04:17.878Z,615.23
2023-03-17T08:05:17.875Z,654.80
2023-03-17T08:06:17.847Z,696.20
2023-03-17T08:07:17.842Z,757.75
2023-03-17T08:08:17.871Z,784.26
2023-03-17T08:09:17.815Z,783.80
2023-03-17T08:10:17.779Z,789.32
2023-03-17T08:11:17.789Z,830.76
2023-03-17T08:12:17.748Z,851.80
2023-03-17T08:13:17.793Z,842.73
2023-03-17T08:14:17.727Z,850.19
2023-03-17T08:15:17.755Z,815.65
2023-03-17T08:16:17.795Z,737.46
2023-03-17T08:17:17.740Z,782.89
2023-03-17T08:18:17.699Z,836.44
2023-03-17T08:19:17.699Z,879.09
2023-03-17T08:20:17.653Z,901.47
2023-03-17T08:21:17.653Z,921.86
2023-03-17T08:22:17.632Z,957.98
2023-03-17T08:23:17.671Z,903.90
2023-03-17T08:24:17.618Z,866.62
2023-03-17T08:25:17.623Z,825.66
2023-03-17T08:26:17.576Z,827.18
2023-03-17T08:27:17.559Z,829.22
2023-03-17T08:28:17.644Z,827.18
2023-03-17T08:29:17.617Z,818.62
2023-03-17T08:30:17.537Z,810.24
2023-03-17T08:31:17.572Z,801.55
2023-03-17T08:32:17.508Z,814.16
2023-03-17T08:33:17.591Z,811.71
2023-03-17T08:34:17.490Z,811.22
2023-03-17T08:35:17.629Z,793.98
2023-03-17T08:36:17.472Z,777.01
2023-03-17T08:37:17.449Z,806.84
2023-03-17T08:38:17.463Z,804.91
2023-03-17T08:39:17.418Z,790.71
2023-03-17T08:40:17.424Z,795.39
2023-03-17T08:41:17.423Z,787.93
2023-03-17T08:42:17.392Z,787.93
2023-03-17T08:43:17.363Z,796.80
2023-03-17T08:44:17.361Z,813.18
2023-03-17T08:45:17.333Z,817.63
2023-03-17T08:46:17.357Z,802.03
2023-03-17T08:47:17.370Z,792.58
2023-03-17T08:48:17.330Z,784.71
2023-03-17T08:49:17.324Z,799.64
2023-03-17T08:50:17.276Z,776.11
2023-03-17T08:51:19.054Z,783.80
2023-03-17T08:52:17.253Z,786.09
2023-03-17T08:53:17.265Z,804.42
2023-03-17T08:54:17.227Z,827.18
2023-03-17T08:55:17.238Z,834.37
2023-03-17T08:56:17.192Z,854.51
2023-03-17T08:57:17.242Z,852.89
2023-03-17T08:58:17.200Z,836.96
2023-03-17T08:59:17.185Z,815.15
2023-03-17T09:00:17.159Z,830.25
2023-03-17T09:01:17.174Z,850.19
2023-03-17T09:02:17.186Z,845.91
2023-03-17T09:03:17.125Z,832.30
2023-03-17T09:04:17.131Z,911.25
2023-03-17T09:05:17.124Z,983.91
2023-03-17T09:06:17.077Z,1009.00
2023-03-17T09:07:17.065Z,986.07
2023-03-17T09:08:17.104Z,949.86
2023-03-17T09:09:17.068Z,927.59
2023-03-17T09:10:17.130Z,937.93
2023-03-17T09:11:17.040Z,944.52
2023-03-17T09:12:17.008Z,949.86
2023-03-17T09:13:17.021Z,952.55
2023-03-17T09:14:17.007Z,980.32
2023-03-17T09:15:16.984Z,1023.59
2023-03-17T09:16:17.034Z,1024.37
2023-03-17T09:17:16.969Z,1067.46
2023-03-17T09:18:16.946Z,1033.82
2023-03-17T09:19:16.933Z,1083.80
2023-03-17T09:20:16.937Z,1077.72
2023-03-17T09:21:16.899Z,1054.07
2023-03-17T09:22:16.885Z,1037.01
2023-03-17T09:23:16.910Z,1054.07
2023-03-17T09:24:16.898Z,1073.42
2023-03-17T09:25:16.916Z,1082.06
2023-03-17T09:26:16.829Z,1088.19
2023-03-17T09:27:16.864Z,1057.39
2023-03-17T09:28:16.878Z,1037.81
2023-03-17T09:29:16.840Z,1009.76
2023-03-17T09:30:16.814Z,1041.83
2023-03-17T09:31:16.889Z,1025.15
2023-03-17T09:32:16.783Z,1015.86
2023-03-17T09:33:16.759Z,1036.21
2023-03-17T09:34:16.748Z,1018.94
2023-03-17T09:35:16.758Z,1024.37
2023-03-17T09:36:16.719Z,1029.86
2023-03-17T09:37:16.728Z,1047.51
2023-03-17T09:38:16.690Z,1078.59
2023-03-17T09:39:16.684Z,1126.46
2023-03-17T09:40:16.664Z,1142.73
2023-03-17T09:41:16.670Z,1166.52
2023-03-17T09:42:16.696Z,1174.67
2023-03-17T09:43:16.624Z,1167.53
2023-03-17T09:44:16.624Z,1175.70
2023-03-17T09:45:16.614Z,1190.27
2023-03-17T09:46:16.599Z,1192.38
2023-03-17T09:47:16.603Z,1163.49
2023-03-17T09:48:16.594Z,1178.79
2023-03-17T09:49:16.593Z,1210.62
2023-03-17T09:50:16.560Z,1192.38
2023-03-17T09:51:16.527Z,1192.38
2023-03-17T09:52:16.520Z,1186.07
2023-03-17T09:53:16.698Z,1167.53
2023-03-17T09:54:16.562Z,1155.50
2023-03-17T09:55:16.481Z,1155.50
2023-03-17T09:56:16.476Z,1145.66
2023-03-17T09:57:16.450Z,1143.71
2023-03-17T09:58:16.444Z,1179.82
2023-03-17T09:59:16.452Z,1227.19
2023-03-17T10:00:16.432Z,1226.07
2023-03-17T10:01:16.395Z,1273.67
2023-03-17T10:02:16.410Z,1250.00
2023-03-17T10:03:16.381Z,1274.88
2023-03-17T10:04:18.745Z,1252.33
2023-03-17T10:05:16.470Z,1236.21
2023-03-17T10:06:16.372Z,1278.52
2023-03-17T10:07:16.363Z,1293.27
2023-03-17T10:08:30.003Z,1334.32
2023-03-17T10:09:16.347Z,1343.66
2023-03-17T10:10:16.328Z,1329.05
2023-03-17T10:11:16.376Z,1342.31
2023-03-17T10:12:16.263Z,1339.64
2023-03-17T10:13:16.261Z,1309.64
2023-03-17T10:14:16.271Z,1449.35
2023-03-17T10:15:16.275Z,1546.87
2023-03-17T10:16:16.273Z,1602.14
2023-03-17T10:17:16.244Z,1521.49
2023-03-17T10:18:16.229Z,1486.19
2023-03-17T10:19:16.243Z,1440.04
2023-03-17T10:20:16.180Z,1389.46
2023-03-17T10:21:16.175Z,1365.48
2023-03-17T10:22:16.146Z,1343.66
2023-03-17T10:23:16.170Z,1334.32
2023-03-17T10:24:16.170Z,1347.69
2023-03-17T10:25:16.149Z,1342.31
2023-03-17T10:26:16.186Z,1396.68
2023-03-17T10:27:16.116Z,1358.58
2023-03-17T10:28:16.105Z,1339.64
2023-03-17T10:29:16.140Z,1331.68
2023-03-17T10:30:16.094Z,1321.22
2023-03-17T10:31:16.095Z,1317.33
2023-03-17T10:32:16.043Z,1440.04
2023-03-17T10:33:16.043Z,1479.65
2023-03-17T10:34:16.020Z,1507.00
2023-03-17T10:35:16.044Z,1568.51
2023-03-17T10:36:16.020Z,1536.27
2023-03-17T10:37:15.963Z,1518.92
2023-03-17T10:38:15.955Z,1525.81
2023-03-17T10:39:15.969Z,1429.33
2023-03-17T10:40:17.605Z,1409.85
2023-03-17T10:41:15.961Z,1446.24
2023-03-17T10:42:15.902Z,1511.24
2023-03-17T10:43:15.898Z,1523.22
2023-03-17T10:44:15.906Z,1486.19
2023-03-17T10:45:15.882Z,1452.48
2023-03-17T10:46:15.878Z,1433.90
2023-03-17T10:47:15.976Z,1409.85
2023-03-17T10:48:15.860Z,1386.60
2023-03-17T10:49:15.848Z,1406.90
2023-03-17T10:50:15.824Z,1452.48
2023-03-17T10:51:15.805Z,1438.50
2023-03-17T10:52:15.812Z,1417.28
2023-03-17T10:53:15.806Z,1388.03
2023-03-17T10:54:15.790Z,1478.02
2023-03-17T10:55:15.751Z,1484.55
2023-03-17T10:56:15.744Z,1408.38
2023-03-17T10:57:15.747Z,1380.90
2023-03-17T10:58:15.736Z,1415.79
2023-03-17T10:59:15.756Z,1423.28
2023-03-17T11:00:15.722Z,1471.55
2023-03-17T11:01:15.700Z,1458.79
2023-03-17T11:02:15.666Z,1476.40
2023-03-17T11:03:15.668Z,1481.28
2023-03-17T11:04:15.768Z,1469.94
2023-03-17T11:05:15.676Z,1440.04
2023-03-17T11:06:15.629Z,1458.79
2023-03-17T11:07:15.616Z,1474.78
2023-03-17T11:08:15.592Z,1390.90
2023-03-17T11:09:15.597Z,1365.48
2023-03-17T11:10:15.570Z,1369.65
2023-03-17T11:11:15.601Z,1322.52
2023-03-17T11:12:15.559Z,1246.52
2023-03-17T11:13:15.559Z,1193.43
2023-03-17T11:14:15.554Z,1197.68
2023-03-17T11:15:15.546Z,1231.69
2023-03-17T11:16:15.608Z,1254.66
2023-03-17T11:17:15.548Z,1334.32
2023-03-17T11:18:15.484Z,1338.31
2023-03-17T11:19:15.496Z,1361.33
2023-03-17T11:20:15.455Z,1435.43
2023-03-17T11:21:15.488Z,1465.14
2023-03-17T11:22:15.465Z,1412.81
2023-03-17T11:23:15.448Z,1372.45
2023-03-17T11:24:15.417Z,1319.92
2023-03-17T11:25:15.431Z,1268.87
2023-03-17T11:26:15.388Z,1238.49
2023-03-17T11:27:15.374Z,1212.80
2023-03-17T11:28:15.352Z,1251.16
2023-03-17T11:29:15.374Z,1247.68
2023-03-17T11:30:15.337Z,1376.66
2023-03-17T11:31:15.479Z,1411.33
2023-03-17T11:32:15.329Z,1389.46
2023-03-17T11:33:15.299Z,1393.78
2023-03-17T11:34:15.313Z,1402.50
2023-03-17T11:35:15.321Z,1481.28
2023-03-17T11:36:15.275Z,1519.77
2023-03-17T11:37:15.255Z,1494.44
2023-03-17T11:38:15.238Z,1501.12
2023-03-17T11:39:15.236Z,1443.13
2023-03-17T11:40:15.221Z,1499.44
2023-03-17T11:41:15.244Z,1487.83
2023-03-17T11:42:15.206Z,1524.94
2023-03-17T11:43:15.194Z,1505.32
2023-03-17T11:44:15.177Z,1487.83
2023-03-17T11:45:15.191Z,1259.36
2023-03-17T11:46:15.166Z,1314.76
2023-03-17T11:47:15.167Z,1412.81
2023-03-17T11:48:15.129Z,1465.14
2023-03-17T11:49:15.113Z,1528.41
2023-03-17T11:50:15.111Z,1563.95
2023-03-17T11:51:15.228Z,1588.90
2023-03-17T11:52:15.112Z,1556.71
2023-03-17T11:53:15.097Z,1644.25
2023-03-17T11:54:15.050Z,1597.39
2023-03-17T11:55:15.058Z,1543.32
2023-03-17T11:56:15.019Z,1710.11
2023-03-17T11:57:15.029Z,1631.29
2023-03-17T11:58:15.042Z,1538.90
2023-03-17T11:59:15.026Z,1535.39
2023-03-17T12:00:14.968Z,1604.05
2023-03-17T12:01:14.966Z,1733.25
2023-03-17T12:02:14.958Z,1670.81
2023-03-17T12:03:15.042Z,1702.53
2023-03-17T12:04:14.941Z,1766.25
2023-03-17T12:05:14.955Z,1804.16
2023-03-17T12:06:14.900Z,1673.93
2023-03-17T12:07:14.892Z,1482.91
2023-03-17T12:08:14.893Z,1497.77
2023-03-17T12:09:14.864Z,1497.77
2023-03-17T12:10:14.919Z,1450.92
2023-03-17T12:11:14.905Z,1486.19
2023-03-17T12:12:16.276Z,1703.61
2023-03-17T12:13:14.805Z,1824.97
2023-03-17T12:14:14.796Z,1755.87
2023-03-17T12:15:14.792Z,1695.02
2023-03-17T12:16:14.794Z,1598.34
2023-03-17T12:17:14.812Z,1634.26
2023-03-17T12:18:14.775Z,1601.19
2023-03-17T12:19:14.757Z,1512.08
2023-03-17T12:20:14.867Z,1537.14
2023-03-17T12:21:14.719Z,1625.38
2023-03-17T12:22:14.714Z,1543.32
2023-03-17T12:23:14.736Z,1449.35
2023-03-17T12:24:14.695Z,1484.55
2023-03-17T12:25:14.671Z,1497.77
2023-03-17T12:26:14.648Z,1458.79
2023-03-17T12:27:14.650Z,1494.44
2023-03-17T12:28:14.650Z,1527.54
2023-03-17T12:29:14.651Z,1494.44